Time;durP1;ratioP1;P1;durP2;ratioP2;P2;SDS_P1;SDS_P2;PMS_P1;PMS_P2;Temp;Humidity;BMP_temperature;BMP_pressure;BME280_temperature;BME280_humidity;BME280_pressure;Samples;Min_cycle;Max_cycle;Signal;HPM_P1;HPM_P2
2021/11/14 00:01:15;;;;;;;;;;;11.30;99.90;;;;;;4393797;32;20012;-76
2021/11/14 00:03:43;;;;;;;;;;;11.30;99.90;;;;;;4367173;32;20004;-76
2021/11/14 00:06:10;;;;;;;;;;;11.30;99.90;;;;;;4379513;32;20356;-76
2021/11/14 00:08:38;;;;;;;;;;;11.30;99.90;;;;;;4392707;32;20113;-76
2021/11/14 00:11:09;;;;;;;;;;;11.30;99.90;;;;;;4392724;32;20038;-77
2021/11/14 00:13:41;;;;;;;;;;;11.30;99.90;;;;;;4379866;32;20008;-76
2021/11/14 00:16:10;;;;;;;;;;;11.30;99.90;;;;;;4366988;32;20067;-76
2021/11/14 00:18:39;;;;;;;;;;;11.30;99.90;;;;;;4378800;32;20479;-76
2021/11/14 00:21:06;;;;;;;;;;;11.30;99.90;;;;;;4379309;32;20001;-76
2021/11/14 00:23:33;;;;;;;;;;;11.30;99.90;;;;;;4379535;32;19997;-77
2021/11/14 00:26:01;;;;;;;;;;;11.30;99.90;;;;;;4392696;32;20008;-76
2021/11/14 00:28:28;;;;;;;;;;;11.30;99.90;;;;;;4393256;32;20480;-76
2021/11/14 00:30:55;;;;;;;;;;;11.30;99.90;;;;;;4379254;32;20015;-76
2021/11/14 00:33:23;;;;;;;;;;;11.30;99.90;;;;;;4379487;32;20008;-76
2021/11/14 00:35:52;;;;;;;;;;;11.30;99.90;;;;;;4379438;32;20009;-76
2021/11/14 00:38:20;;;;;;;;;;;11.30;99.90;;;;;;4393003;32;20070;-77
2021/11/14 00:40:47;;;;;;;;;;;11.30;99.90;;;;;;4379448;32;20030;-76
2021/11/14 00:43:15;;;;;;;;;;;11.30;99.90;;;;;;4392664;32;20007;-76
2021/11/14 00:45:44;;;;;;;;;;;11.30;99.90;;;;;;4378816;32;20003;-76
2021/11/14 00:48:13;;;;;;;;;;;11.20;99.90;;;;;;4392855;32;20027;-76
2021/11/14 00:50:43;;;;;;;;;;;11.30;99.90;;;;;;4392514;32;19999;-76
2021/11/14 00:53:11;;;;;;;;;;;11.30;99.90;;;;;;4392553;32;20038;-76
2021/11/14 00:55:38;;;;;;;;;;;11.30;99.90;;;;;;4378806;32;20089;-76
2021/11/14 00:58:05;;;;;;;;;;;11.30;99.90;;;;;;4392944;32;20000;-76
2021/11/14 01:00:33;;;;;;;;;;;11.30;99.90;;;;;;4378624;32;20024;-76
2021/11/14 01:03:01;;;;;;;;;;;11.20;99.90;;;;;;4366480;32;19996;-76
2021/11/14 01:05:29;;;;;;;;;;;11.30;99.90;;;;;;4392418;32;20460;-76
2021/11/14 01:07:56;;;;;;;;;;;11.30;99.90;;;;;;4392422;32;20000;-76
2021/11/14 01:10:26;;;;;;;;;;;11.30;99.90;;;;;;4391458;32;37867;-76
2021/11/14 01:12:56;;;;;;;;;;;11.30;99.90;;;;;;4364636;32;20012;-74
2021/11/14 01:15:24;;;;;;;;;;;11.20;99.90;;;;;;4363088;32;40893;-76
2021/11/14 01:17:51;;;;;;;;;;;11.30;99.90;;;;;;4376075;32;36358;-76
2021/11/14 01:20:20;;;;;;;;;;;11.20;99.90;;;;;;4376396;32;20072;-76
2021/11/14 01:22:48;;;;;;;;;;;11.20;99.90;;;;;;4376506;32;42504;-75
2021/11/14 01:25:15;;;;;;;;;;;11.30;99.90;;;;;;4350208;32;47208;-75
2021/11/14 01:27:43;;;;;;;;;;;11.30;99.90;;;;;;4375980;32;34239;-74
2021/11/14 01:30:15;;;;;;;;;;;11.30;99.90;;;;;;4375754;32;40930;-78
2021/11/14 01:32:42;;;;;;;;;;;11.30;99.90;;;;;;4362851;32;35919;-76
2021/11/14 01:35:10;;;;;;;;;;;11.20;99.90;;;;;;4376286;32;43739;-76
2021/11/14 01:37:38;;;;;;;;;;;11.30;99.90;;;;;;4362605;32;41473;-76
2021/11/14 01:40:06;;;;;;;;;;;11.20;99.90;;;;;;4362176;32;45449;-76
2021/11/14 01:42:33;;;;;;;;;;;11.20;99.90;;;;;;4363733;32;20369;-76
2021/11/14 01:45:01;;;;;;;;;;;11.20;99.90;;;;;;4350119;32;41478;-76
2021/11/14 01:47:28;;;;;;;;;;;11.20;99.90;;;;;;4375350;32;44947;-76
2021/11/14 01:49:55;;;;;;;;;;;11.30;99.90;;;;;;4362431;32;44125;-76
2021/11/14 01:52:29;;;;;;;;;;;11.20;99.90;;;;;;4375375;32;43866;-76
2021/11/14 01:54:56;;;;;;;;;;;11.20;99.90;;;;;;4362029;32;43597;-76
2021/11/14 01:57:23;;;;;;;;;;;11.20;99.90;;;;;;4361807;32;43846;-76
2021/11/14 01:59:50;;;;;;;;;;;11.20;99.90;;;;;;4362576;32;34159;-77
2021/11/14 02:02:18;;;;;;;;;;;11.20;99.90;;;;;;4375519;32;38357;-76
2021/11/14 02:04:46;;;;;;;;;;;11.20;99.90;;;;;;4376535;32;20008;-76
2021/11/14 02:07:15;;;;;;;;;;;11.20;99.90;;;;;;4375730;32;42336;-76
2021/11/14 02:09:43;;;;;;;;;;;11.20;99.90;;;;;;4376666;32;20012;-76
2021/11/14 02:12:10;;;;;;;;;;;11.20;99.90;;;;;;4372199;32;32392;-76
2021/11/14 02:14:38;;;;;;;;;;;11.20;99.90;;;;;;4376425;32;43627;-77
2021/11/14 02:17:05;;;;;;;;;;;11.20;99.90;;;;;;4390199;32;39394;-76
2021/11/14 02:19:32;;;;;;;;;;;11.20;99.90;;;;;;4390655;32;36689;-76
2021/11/14 02:21:59;;;;;;;;;;;11.20;99.90;;;;;;4376855;32;42495;-76
2021/11/14 02:24:27;;;;;;;;;;;11.20;99.90;;;;;;4376958;32;37064;-76
2021/11/14 02:26:54;;;;;;;;;;;11.20;99.90;;;;;;4376551;32;39466;-77
2021/11/14 02:29:21;;;;;;;;;;;11.20;99.90;;;;;;4390475;32;43527;-76
2021/11/14 02:31:49;;;;;;;;;;;11.20;99.90;;;;;;4364101;32;39887;-76
2021/11/14 02:34:16;;;;;;;;;;;11.20;99.90;;;;;;4377111;32;35129;-76
2021/11/14 02:36:43;;;;;;;;;;;11.20;99.90;;;;;;4390133;32;43794;-76
2021/11/14 02:39:10;;;;;;;;;;;11.20;99.90;;;;;;4389957;32;38620;-76
2021/11/14 02:41:37;;;;;;;;;;;11.20;99.90;;;;;;4390320;32;42510;-76
2021/11/14 02:44:04;;;;;;;;;;;11.20;99.80;;;;;;4389985;32;41128;-76
2021/11/14 02:46:31;;;;;;;;;;;11.20;99.90;;;;;;4390690;32;34751;-76
2021/11/14 02:48:59;;;;;;;;;;;11.20;99.80;;;;;;4377019;32;38719;-77
2021/11/14 02:51:27;;;;;;;;;;;11.20;99.90;;;;;;4390081;32;32018;-77
2021/11/14 02:53:55;;;;;;;;;;;11.20;99.90;;;;;;4376810;32;44356;-77
2021/11/14 02:56:22;;;;;;;;;;;11.20;99.80;;;;;;4376866;32;36446;-76
2021/11/14 02:58:49;;;;;;;;;;;11.20;99.80;;;;;;4390122;32;44713;-77
2021/11/14 03:01:19;;;;;;;;;;;11.20;99.80;;;;;;4377084;32;44111;-76
2021/11/14 03:03:47;;;;;;;;;;;11.20;99.80;;;;;;4376457;32;46647;-76
2021/11/14 03:06:15;;;;;;;;;;;11.20;99.80;;;;;;4392598;32;33182;-76
2021/11/14 03:08:42;;;;;;;;;;;11.20;99.80;;;;;;4379714;32;41287;-77
2021/11/14 03:11:09;;;;;;;;;;;11.20;99.80;;;;;;4392771;32;43154;-77
2021/11/14 03:13:36;;;;;;;;;;;11.20;99.80;;;;;;4393278;32;30590;-76
2021/11/14 03:16:04;;;;;;;;;;;11.20;99.80;;;;;;4392644;32;44965;-77
2021/11/14 03:18:32;;;;;;;;;;;11.20;99.80;;;;;;4366578;32;45489;-76
2021/11/14 03:20:59;;;;;;;;;;;11.20;99.80;;;;;;4392982;32;43552;-76
2021/11/14 03:23:27;;;;;;;;;;;11.20;99.80;;;;;;4392939;32;43571;-76
2021/11/14 03:25:54;;;;;;;;;;;11.20;99.80;;;;;;4392609;32;41092;-76
2021/11/14 03:28:21;;;;;;;;;;;11.10;99.80;;;;;;4379485;32;31010;-76
2021/11/14 03:30:50;;;;;;;;;;;11.20;99.80;;;;;;4379043;32;43471;-76
2021/11/14 03:33:18;;;;;;;;;;;11.20;99.90;;;;;;4392986;32;43498;-76
2021/11/14 03:35:49;;;;;;;;;;;11.20;99.80;;;;;;4393066;32;44698;-76
2021/11/14 03:38:30;;;;;;;;;;;11.20;99.80;;;;;;4392657;32;43666;-77
2021/11/14 03:40:58;;;;;;;;;;;11.20;99.80;;;;;;4392707;32;41018;-76
2021/11/14 03:43:25;;;;;;;;;;;11.20;99.80;;;;;;4379635;32;20011;-76
2021/11/14 03:45:53;;;;;;;;;;;11.20;99.80;;;;;;4379336;32;40530;-76
2021/11/14 03:48:21;;;;;;;;;;;11.10;99.90;;;;;;4392185;32;42758;-76
2021/11/14 03:50:48;;;;;;;;;;;11.20;99.80;;;;;;4392231;32;43540;-76
2021/11/14 03:53:15;;;;;;;;;;;11.20;99.80;;;;;;4379425;32;39942;-77
2021/11/14 03:55:43;;;;;;;;;;;11.20;99.80;;;;;;4378681;32;36415;-76
2021/11/14 03:58:10;;;;;;;;;;;11.20;99.80;;;;;;4380287;32;20025;-76
2021/11/14 04:00:39;;;;;;;;;;;11.20;99.80;;;;;;4392942;32;20030;-76
2021/11/14 04:03:07;;;;;;;;;;;11.10;99.80;;;;;;4367593;32;19996;-77
2021/11/14 04:05:34;;;;;;;;;;;11.20;99.80;;;;;;4379548;32;20012;-77
2021/11/14 04:08:05;;;;;;;;;;;11.10;99.80;;;;;;4379517;32;20008;-77
2021/11/14 04:10:33;;;;;;;;;;;11.10;99.80;;;;;;4367007;32;20005;-76
2021/11/14 04:13:00;;;;;;;;;;;11.10;99.80;;;;;;4393625;32;20013;-77
2021/11/14 04:15:27;;;;;;;;;;;11.10;99.80;;;;;;4379254;32;20017;-76
2021/11/14 04:17:57;;;;;;;;;;;11.20;99.80;;;;;;4392473;32;20008;-76
2021/11/14 04:20:26;;;;;;;;;;;11.10;99.80;;;;;;4378877;32;19996;-77
2021/11/14 04:22:53;;;;;;;;;;;11.10;99.80;;;;;;4392812;32;20015;-77
2021/11/14 04:25:21;;;;;;;;;;;11.10;99.80;;;;;;4379298;32;20430;-76
2021/11/14 04:27:49;;;;;;;;;;;11.10;99.70;;;;;;4393287;32;20525;-77
2021/11/14 04:30:16;;;;;;;;;;;11.10;99.70;;;;;;4392636;32;20023;-75
2021/11/14 04:32:44;;;;;;;;;;;11.10;99.70;;;;;;4379073;32;20443;-76
2021/11/14 04:35:12;;;;;;;;;;;11.10;99.70;;;;;;4378774;32;20001;-76
2021/11/14 04:37:39;;;;;;;;;;;11.10;99.70;;;;;;4393296;32;20059;-76
2021/11/14 04:40:08;;;;;;;;;;;11.10;99.70;;;;;;4379397;32;20017;-76
2021/11/14 04:42:36;;;;;;;;;;;11.10;99.70;;;;;;4366689;32;20007;-77
2021/11/14 04:45:05;;;;;;;;;;;11.10;99.70;;;;;;4366718;32;20012;-76
2021/11/14 04:47:32;;;;;;;;;;;11.10;99.70;;;;;;4379563;32;20027;-77
2021/11/14 04:49:59;;;;;;;;;;;11.10;99.70;;;;;;4392976;32;20015;-76
2021/11/14 04:52:26;;;;;;;;;;;11.10;99.70;;;;;;4378975;32;20016;-77
2021/11/14 04:54:53;;;;;;;;;;;11.10;99.70;;;;;;4392278;32;20012;-77
2021/11/14 04:57:20;;;;;;;;;;;11.10;99.70;;;;;;4392700;32;20012;-77
2021/11/14 04:59:48;;;;;;;;;;;11.10;99.70;;;;;;4379487;32;20439;-77
2021/11/14 05:02:15;;;;;;;;;;;11.10;99.70;;;;;;4379775;32;20008;-77
2021/11/14 05:04:43;;;;;;;;;;;11.10;99.70;;;;;;4366592;32;20023;-77
2021/11/14 05:07:11;;;;;;;;;;;11.10;99.70;;;;;;4379223;32;20016;-77
2021/11/14 05:09:38;;;;;;;;;;;11.10;99.70;;;;;;4379122;32;20016;-77
2021/11/14 05:12:06;;;;;;;;;;;11.10;99.70;;;;;;4366408;32;20039;-78
2021/11/14 05:14:33;;;;;;;;;;;11.10;99.70;;;;;;4366299;32;20008;-76
2021/11/14 05:17:00;;;;;;;;;;;11.10;99.70;;;;;;4366329;32;20064;-76
2021/11/14 05:19:28;;;;;;;;;;;11.10;99.70;;;;;;4366587;32;20365;-77
2021/11/14 05:21:55;;;;;;;;;;;11.10;99.70;;;;;;4378935;32;20011;-77
2021/11/14 05:24:22;;;;;;;;;;;11.10;99.70;;;;;;4392527;32;20053;-77
2021/11/14 05:26:50;;;;;;;;;;;11.10;99.70;;;;;;4378750;32;20011;-76
2021/11/14 05:29:17;;;;;;;;;;;11.10;99.70;;;;;;4391521;32;19996;-76
2021/11/14 05:31:45;;;;;;;;;;;11.10;99.70;;;;;;4378735;32;20016;-77
2021/11/14 05:34:12;;;;;;;;;;;11.10;99.70;;;;;;4391655;32;20405;-77
2021/11/14 05:36:39;;;;;;;;;;;11.10;99.70;;;;;;4366188;32;20000;-77
2021/11/14 05:39:06;;;;;;;;;;;11.10;99.70;;;;;;4366208;32;20018;-77
2021/11/14 05:41:33;;;;;;;;;;;11.10;99.70;;;;;;4392319;32;20011;-77
2021/11/14 05:44:00;;;;;;;;;;;11.10;99.90;;;;;;4392253;32;20059;-76
2021/11/14 05:46:28;;;;;;;;;;;11.10;99.70;;;;;;4391240;32;20016;-77
2021/11/14 05:48:55;;;;;;;;;;;11.10;99.70;;;;;;4378478;32;20024;-76
2021/11/14 05:51:22;;;;;;;;;;;11.10;99.70;;;;;;4377956;32;20022;-76
2021/11/14 05:53:49;;;;;;;;;;;11.10;99.90;;;;;;4391264;32;20406;-78
2021/11/14 05:56:16;;;;;;;;;;;11.10;99.70;;;;;;4392074;32;20085;-77
2021/11/14 05:58:55;;;;;;;;;;;11.10;99.70;;;;;;4392041;32;20004;-77
2021/11/14 06:01:31;;;;;;;;;;;11.10;99.70;;;;;;4366108;32;20008;-77
2021/11/14 06:04:06;;;;;;;;;;;11.10;99.70;;;;;;4391885;32;20000;-76
2021/11/14 06:06:33;;;;;;;;;;;11.10;99.70;;;;;;4391750;32;20014;-77
2021/11/14 06:09:00;;;;;;;;;;;11.00;99.60;;;;;;4377888;32;20075;-77
2021/11/14 06:11:27;;;;;;;;;;;11.10;99.60;;;;;;4391428;32;20008;-77
2021/11/14 06:13:54;;;;;;;;;;;11.10;99.70;;;;;;4378283;32;20014;-77
2021/11/14 06:16:22;;;;;;;;;;;11.10;99.70;;;;;;4391354;32;20008;-77
2021/11/14 06:18:49;;;;;;;;;;;11.10;99.60;;;;;;4391915;32;19997;-77
2021/11/14 06:21:16;;;;;;;;;;;11.10;99.60;;;;;;4378088;32;20014;-76
2021/11/14 06:23:43;;;;;;;;;;;11.00;99.60;;;;;;4391442;32;20022;-77
2021/11/14 06:26:10;;;;;;;;;;;11.10;99.70;;;;;;4391794;32;20042;-77
2021/11/14 06:28:38;;;;;;;;;;;11.10;99.60;;;;;;4391609;32;20070;-77
2021/11/14 06:31:06;;;;;;;;;;;11.00;99.60;;;;;;4391392;32;20015;-77
2021/11/14 06:33:33;;;;;;;;;;;11.10;99.60;;;;;;4391092;32;20042;-78
2021/11/14 06:36:00;;;;;;;;;;;11.10;99.60;;;;;;4391604;32;20020;-77
2021/11/14 06:38:28;;;;;;;;;;;11.00;99.60;;;;;;4364818;32;20432;-77
2021/11/14 06:40:55;;;;;;;;;;;11.00;99.60;;;;;;4390508;32;20008;-77
2021/11/14 06:43:22;;;;;;;;;;;11.00;99.60;;;;;;4365637;32;19992;-77
2021/11/14 06:45:49;;;;;;;;;;;11.10;99.60;;;;;;4377862;32;20012;-77
2021/11/14 06:48:17;;;;;;;;;;;11.00;99.60;;;;;;4377304;32;20420;-78
2021/11/14 06:50:44;;;;;;;;;;;11.00;99.60;;;;;;4377688;32;20004;-77
2021/11/14 06:53:11;;;;;;;;;;;11.00;99.60;;;;;;4377568;32;20063;-77
2021/11/14 06:55:38;;;;;;;;;;;11.00;99.60;;;;;;4391270;32;20387;-77
2021/11/14 06:58:06;;;;;;;;;;;11.00;99.60;;;;;;4376207;32;45107;-77
2021/11/14 07:00:33;;;;;;;;;;;11.00;99.60;;;;;;4376308;32;39978;-77
2021/11/14 07:03:00;;;;;;;;;;;11.00;99.60;;;;;;4390097;32;42790;-75
2021/11/14 07:05:27;;;;;;;;;;;11.00;99.60;;;;;;4376375;32;36372;-76
2021/11/14 07:07:54;;;;;;;;;;;11.00;99.60;;;;;;4376323;32;43393;-77
2021/11/14 07:10:24;;;;;;;;;;;11.00;99.60;;;;;;4390106;32;44666;-76
2021/11/14 07:12:52;;;;;;;;;;;11.00;99.50;;;;;;4375939;32;43765;-77
2021/11/14 07:15:19;;;;;;;;;;;11.00;99.50;;;;;;4376606;32;40731;-77
2021/11/14 07:17:46;;;;;;;;;;;11.00;99.50;;;;;;4376536;32;42359;-77
2021/11/14 07:20:15;;;;;;;;;;;11.00;99.50;;;;;;4390391;32;36944;-77
2021/11/14 07:22:44;;;;;;;;;;;11.00;99.50;;;;;;4389704;32;44735;-77
2021/11/14 07:25:14;;;;;;;;;;;11.00;99.50;;;;;;4389938;32;44404;-77
2021/11/14 07:27:42;;;;;;;;;;;11.00;99.50;;;;;;4390273;32;39302;-77
2021/11/14 07:30:13;;;;;;;;;;;11.00;99.50;;;;;;4389466;32;42848;-77
2021/11/14 07:32:40;;;;;;;;;;;11.00;99.50;;;;;;4389989;32;43630;-77
2021/11/14 07:35:09;;;;;;;;;;;11.00;99.50;;;;;;4389826;32;43824;-77
2021/11/14 07:37:36;;;;;;;;;;;11.00;99.50;;;;;;4390132;32;41080;-77
2021/11/14 07:40:03;;;;;;;;;;;11.00;99.50;;;;;;4389504;32;41354;-77
2021/11/14 07:42:30;;;;;;;;;;;11.00;99.50;;;;;;4376325;32;45104;-77
2021/11/14 07:44:58;;;;;;;;;;;11.00;99.40;;;;;;4390636;32;20008;-77
2021/11/14 07:47:25;;;;;;;;;;;11.00;99.40;;;;;;4376181;32;39883;-78
2021/11/14 07:49:52;;;;;;;;;;;11.00;99.40;;;;;;4376783;32;22096;-81
2021/11/14 07:52:27;;;;;;;;;;;11.00;99.40;;;;;;4392147;32;31702;-76
2021/11/14 07:54:59;;;;;;;;;;;11.00;99.40;;;;;;4379689;32;38523;-77
2021/11/14 07:57:27;;;;;;;;;;;11.00;99.40;;;;;;4393358;32;20012;-77
2021/11/14 07:59:54;;;;;;;;;;;11.00;99.40;;;;;;4379837;32;20027;-77
2021/11/14 08:02:21;;;;;;;;;;;11.00;99.40;;;;;;4392180;32;43360;-77
2021/11/14 08:04:48;;;;;;;;;;;11.00;99.40;;;;;;4379168;32;38373;-78
2021/11/14 08:07:15;;;;;;;;;;;11.00;99.40;;;;;;4392460;32;38318;-77
2021/11/14 08:09:43;;;;;;;;;;;11.00;99.40;;;;;;4393496;32;20043;-77
2021/11/14 08:12:10;;;;;;;;;;;11.00;99.40;;;;;;4378155;32;43141;-77
2021/11/14 08:14:37;;;;;;;;;;;11.00;99.40;;;;;;4378652;32;35849;-77
2021/11/14 08:17:08;;;;;;;;;;;11.00;99.40;;;;;;4392248;32;34908;-77
2021/11/14 08:19:35;;;;;;;;;;;10.90;99.30;;;;;;4392796;32;31311;-77
2021/11/14 08:22:03;;;;;;;;;;;11.00;99.40;;;;;;4379863;32;20051;-77
2021/11/14 08:24:30;;;;;;;;;;;11.00;99.40;;;;;;4378406;32;38661;-77
2021/11/14 08:26:57;;;;;;;;;;;10.90;99.30;;;;;;4378529;32;39266;-77
2021/11/14 08:29:25;;;;;;;;;;;11.00;99.40;;;;;;4391670;32;42031;-77
2021/11/14 08:31:52;;;;;;;;;;;10.90;99.30;;;;;;4391854;32;42884;-77
2021/11/14 08:34:20;;;;;;;;;;;11.00;99.40;;;;;;4378935;32;35091;-77
2021/11/14 08:36:47;;;;;;;;;;;10.90;99.30;;;;;;4378006;32;41947;-77
2021/11/14 08:39:14;;;;;;;;;;;10.90;99.30;;;;;;4392085;32;40992;-77
2021/11/14 08:41:41;;;;;;;;;;;11.00;99.40;;;;;;4391589;32;41313;-77
2021/11/14 08:44:08;;;;;;;;;;;10.90;99.30;;;;;;4391917;32;33254;-78
2021/11/14 08:46:37;;;;;;;;;;;10.90;99.30;;;;;;4392873;32;20004;-77
2021/11/14 08:49:04;;;;;;;;;;;11.00;99.40;;;;;;4378151;32;44014;-77
2021/11/14 08:51:31;;;;;;;;;;;11.00;99.40;;;;;;4378188;32;25239;-78
2021/11/14 08:54:00;;;;;;;;;;;11.00;99.40;;;;;;4378626;32;20007;-77
2021/11/14 08:56:38;;;;;;;;;;;11.00;99.30;;;;;;4392803;32;20001;-78
2021/11/14 08:59:08;;;;;;;;;;;11.00;99.30;;;;;;4378721;32;32637;-78
2021/11/14 09:01:36;;;;;;;;;;;10.90;99.30;;;;;;4391523;32;31817;-78
2021/11/14 09:04:05;;;;;;;;;;;10.90;99.30;;;;;;4377732;32;31027;-78
2021/11/14 09:06:37;;;;;;;;;;;10.90;99.30;;;;;;4378771;32;20046;-78
2021/11/14 09:09:10;;;;;;;;;;;11.00;99.70;;;;;;4378157;32;43694;-77
2021/11/14 09:11:38;;;;;;;;;;;11.00;99.30;;;;;;4377687;32;32091;-78
2021/11/14 09:14:06;;;;;;;;;;;10.90;99.30;;;;;;4366249;32;20001;-78
2021/11/14 09:16:34;;;;;;;;;;;10.90;99.30;;;;;;4378776;32;20004;-78
2021/11/14 09:19:02;;;;;;;;;;;10.90;99.30;;;;;;4378432;32;20044;-78
2021/11/14 09:21:33;;;;;;;;;;;10.90;99.30;;;;;;4378969;32;20076;-77
2021/11/14 09:24:00;;;;;;;;;;;10.90;99.30;;;;;;4378519;32;20126;-78
2021/11/14 09:26:27;;;;;;;;;;;10.90;99.30;;;;;;4392224;32;20019;-78
2021/11/14 09:28:55;;;;;;;;;;;10.90;99.30;;;;;;4366383;32;20400;-78
2021/11/14 09:31:22;;;;;;;;;;;10.90;99.30;;;;;;4378441;32;20079;-80
2021/11/14 09:33:53;;;;;;;;;;;10.90;99.30;;;;;;4366034;32;20004;-77
2021/11/14 09:36:21;;;;;;;;;;;11.00;99.30;;;;;;4392389;32;20000;-77
2021/11/14 09:38:48;;;;;;;;;;;11.00;99.30;;;;;;4365842;32;20010;-77
2021/11/14 09:41:16;;;;;;;;;;;10.90;99.30;;;;;;4392335;32;20004;-78
2021/11/14 09:43:43;;;;;;;;;;;10.90;99.30;;;;;;4378391;32;20063;-78
2021/11/14 09:46:31;;;;;;;;;;;11.00;99.30;;;;;;4381226;32;20004;-78
2021/11/14 09:49:00;;;;;;;;;;;11.00;99.30;;;;;;4378092;32;20000;-78
2021/11/14 09:51:27;;;;;;;;;;;10.90;99.30;;;;;;4365695;32;19988;-78
2021/11/14 09:53:54;;;;;;;;;;;11.00;99.30;;;;;;4365748;32;20015;-77
2021/11/14 09:56:21;;;;;;;;;;;11.00;99.30;;;;;;4391682;32;20015;-78
2021/11/14 09:58:48;;;;;;;;;;;11.00;99.30;;;;;;4391665;32;20008;-78
2021/11/14 10:01:15;;;;;;;;;;;10.90;99.20;;;;;;4391502;32;20424;-78
2021/11/14 10:03:45;;;;;;;;;;;11.00;99.30;;;;;;4391724;32;20063;-77
2021/11/14 10:06:12;;;;;;;;;;;10.90;99.30;;;;;;4378359;32;20068;-78
2021/11/14 10:08:42;;;;;;;;;;;11.00;99.30;;;;;;4391637;32;19996;-78
2021/11/14 10:11:09;;;;;;;;;;;11.00;99.30;;;;;;4377832;32;20016;-78
2021/11/14 10:13:37;;;;;;;;;;;11.00;99.30;;;;;;4378378;32;20022;-78
2021/11/14 10:16:04;;;;;;;;;;;11.00;99.30;;;;;;4390870;32;20409;-78
2021/11/14 10:18:31;;;;;;;;;;;11.00;99.30;;;;;;4391155;32;20022;-78
2021/11/14 10:21:02;;;;;;;;;;;11.00;99.30;;;;;;4378124;32;20050;-78
2021/11/14 10:23:31;;;;;;;;;;;11.00;99.30;;;;;;4391366;32;20019;-78
2021/11/14 10:26:03;;;;;;;;;;;11.00;99.30;;;;;;4364872;32;20008;-75
2021/11/14 10:28:30;;;;;;;;;;;11.00;99.30;;;;;;4377856;32;20385;-77
2021/11/14 10:30:58;;;;;;;;;;;11.00;99.30;;;;;;4391038;32;20001;-77
2021/11/14 10:33:25;;;;;;;;;;;11.00;99.30;;;;;;4377717;32;20015;-76
2021/11/14 10:35:54;;;;;;;;;;;11.00;99.30;;;;;;4377350;32;20023;-77
2021/11/14 10:38:28;;;;;;;;;;;11.00;99.30;;;;;;4391339;32;20005;-76
2021/11/14 10:40:57;;;;;;;;;;;11.00;99.20;;;;;;4365164;32;20356;-77
2021/11/14 10:43:25;;;;;;;;;;;11.00;99.20;;;;;;4364842;32;19996;-78
2021/11/14 10:45:52;;;;;;;;;;;11.00;99.20;;;;;;4377378;32;19996;-77
2021/11/14 10:48:21;;;;;;;;;;;11.00;99.20;;;;;;4377721;32;19996;-86
2021/11/14 10:50:50;;;;;;;;;;;11.00;99.10;;;;;;4377918;32;20004;-83
2021/11/14 10:53:19;;;;;;;;;;;11.00;99.10;;;;;;4378075;32;20022;-88
2021/11/14 10:55:47;;;;;;;;;;;11.00;99.10;;;;;;4390927;32;20023;-86
2021/11/14 10:58:18;;;;;;;;;;;11.00;99.10;;;;;;4377748;32;20004;-83
2021/11/14 11:00:51;;;;;;;;;;;11.00;99.10;;;;;;4377826;32;20018;-84
2021/11/14 11:03:19;;;;;;;;;;;11.00;99.10;;;;;;4391115;32;20020;-85
2021/11/14 11:05:47;;;;;;;;;;;11.00;99.10;;;;;;4390940;32;20023;-84
2021/11/14 11:08:19;;;;;;;;;;;11.00;99.10;;;;;;4376991;32;20004;-82
2021/11/14 11:10:55;;;;;;;;;;;11.00;99.10;;;;;;4377500;32;20008;-78
2021/11/14 11:13:28;;;;;;;;;;;11.00;99.10;;;;;;4377636;32;19996;-78
2021/11/14 11:15:56;;;;;;;;;;;11.00;99.10;;;;;;4377824;32;20012;-77
2021/11/14 11:18:23;;;;;;;;;;;11.00;99.10;;;;;;4377040;32;20483;-81
2021/11/14 11:20:54;;;;;;;;;;;11.00;99.10;;;;;;4377818;32;20004;-81
2021/11/14 11:23:25;;;;;;;;;;;11.10;99.20;;;;;;4391209;32;20018;-81
2021/11/14 11:25:57;;;;;;;;;;;11.00;99.20;;;;;;4377977;32;20000;-81
2021/11/14 11:28:26;;;;;;;;;;;11.10;99.20;;;;;;4380847;32;20402;-81
2021/11/14 11:30:59;;;;;;;;;;;11.10;99.20;;;;;;4394220;32;20108;-81
2021/11/14 11:33:27;;;;;;;;;;;11.10;99.20;;;;;;4367628;32;20410;-82
2021/11/14 11:35:55;;;;;;;;;;;11.10;99.10;;;;;;4367432;32;19996;-82
2021/11/14 11:38:27;;;;;;;;;;;11.10;99.10;;;;;;4380719;32;20052;-82
2021/11/14 11:40:58;;;;;;;;;;;11.10;99.10;;;;;;4393974;32;20075;-81
2021/11/14 11:43:28;;;;;;;;;;;11.10;99.00;;;;;;4393648;32;20008;-82
2021/11/14 11:46:09;;;;;;;;;;;11.10;99.00;;;;;;4393555;32;20018;-82
2021/11/14 11:48:42;;;;;;;;;;;11.10;98.90;;;;;;4380683;32;20056;-81
2021/11/14 11:51:17;;;;;;;;;;;11.20;98.90;;;;;;4380392;32;20014;-82
2021/11/14 11:54:00;;;;;;;;;;;11.10;98.80;;;;;;4393975;32;20012;-81
2021/11/14 11:56:37;;;;;;;;;;;11.10;98.90;;;;;;4379890;32;20022;-81
2021/11/14 11:59:25;;;;;;;;;;;11.20;98.80;;;;;;4393769;32;20056;-81
2021/11/14 12:02:00;;;;;;;;;;;11.10;98.80;;;;;;4367868;32;20034;-82
2021/11/14 12:04:28;;;;;;;;;;;11.10;98.90;;;;;;4394223;32;20060;-82
2021/11/14 12:06:57;;;;;;;;;;;11.20;98.80;;;;;;4379596;32;20016;-82
2021/11/14 12:09:41;;;;;;;;;;;11.20;98.80;;;;;;4367902;32;20007;-82
2021/11/14 12:12:27;;;;;;;;;;;11.20;98.80;;;;;;4379630;32;20005;-82
2021/11/14 12:15:10;;;;;;;;;;;11.20;98.80;;;;;;4393586;32;20012;-82
2021/11/14 12:17:38;;;;;;;;;;;11.20;98.80;;;;;;4366252;32;33955;-84
2021/11/14 12:20:11;;;;;;;;;;;11.20;98.70;;;;;;4379844;32;20003;-82
2021/11/14 12:22:44;;;;;;;;;;;11.10;98.70;;;;;;4393332;32;20012;-82
2021/11/14 12:25:28;;;;;;;;;;;11.20;98.70;;;;;;4392831;32;30522;-86
2021/11/14 12:28:09;;;;;;;;;;;11.20;98.70;;;;;;4380206;32;20026;-82
2021/11/14 12:30:39;;;;;;;;;;;11.20;98.70;;;;;;4379491;32;20012;-82
2021/11/14 12:33:07;;;;;;;;;;;11.20;98.60;;;;;;4393379;32;20000;-81
2021/11/14 12:35:45;;;;;;;;;;;11.20;98.60;;;;;;4393314;32;20018;-80
2021/11/14 12:38:22;;;;;;;;;;;11.20;98.60;;;;;;4378909;32;20023;-82
2021/11/14 12:40:53;;;;;;;;;;;11.20;98.60;;;;;;4378679;32;39710;-83
2021/11/14 12:43:21;;;;;;;;;;;11.20;98.60;;;;;;4379692;32;20012;-83
2021/11/14 12:46:11;;;;;;;;;;;11.20;98.60;;;;;;4379405;32;20048;-83
2021/11/14 12:48:39;;;;;;;;;;;11.20;98.60;;;;;;4392003;32;41298;-83
2021/11/14 12:51:12;;;;;;;;;;;11.20;98.50;;;;;;4391994;32;31632;-84
2021/11/14 12:53:44;;;;;;;;;;;11.20;98.60;;;;;;4378547;32;37206;-83
2021/11/14 12:56:15;;;;;;;;;;;11.20;98.50;;;;;;4393104;32;20055;-83
2021/11/14 12:58:42;;;;;;;;;;;11.20;98.50;;;;;;4393236;32;20310;-82
2021/11/14 13:01:12;;;;;;;;;;;11.20;98.50;;;;;;4366908;32;20106;-83
2021/11/14 13:03:43;;;;;;;;;;;11.20;98.50;;;;;;4379439;32;20012;-80
2021/11/14 13:06:22;;;;;;;;;;;11.20;98.50;;;;;;4392787;32;20027;-83
2021/11/14 13:08:50;;;;;;;;;;;11.20;98.40;;;;;;4379424;32;20013;-80
2021/11/14 13:11:20;;;;;;;;;;;11.20;98.40;;;;;;4378676;32;20027;-82
2021/11/14 13:13:50;;;;;;;;;;;11.20;98.40;;;;;;4379432;32;20442;-81
2021/11/14 13:16:21;;;;;;;;;;;11.20;98.40;;;;;;4392637;32;20012;-82
2021/11/14 13:18:49;;;;;;;;;;;11.20;98.40;;;;;;4379225;32;20012;-82
2021/11/14 13:21:18;;;;;;;;;;;11.20;98.40;;;;;;4378790;32;20004;-82
2021/11/14 13:23:56;;;;;;;;;;;11.20;98.30;;;;;;4392865;32;20005;-81
2021/11/14 13:26:31;;;;;;;;;;;11.30;98.30;;;;;;4378636;32;19996;-83
2021/11/14 13:29:02;;;;;;;;;;;11.30;98.30;;;;;;4378991;32;20063;-82
2021/11/14 13:31:29;;;;;;;;;;;11.30;98.30;;;;;;4366043;32;20020;-83
2021/11/14 13:33:56;;;;;;;;;;;11.30;98.30;;;;;;4379054;32;20381;-82
2021/11/14 13:36:24;;;;;;;;;;;11.30;98.30;;;;;;4379168;32;20024;-83
2021/11/14 13:38:54;;;;;;;;;;;11.30;98.30;;;;;;4378474;32;20045;-83
2021/11/14 13:41:24;;;;;;;;;;;11.30;98.20;;;;;;4379180;32;20012;-81
2021/11/14 13:43:52;;;;;;;;;;;11.30;98.20;;;;;;4391818;32;20046;-83
2021/11/14 13:46:21;;;;;;;;;;;11.30;98.20;;;;;;4392257;32;20042;-81
2021/11/14 13:48:50;;;;;;;;;;;11.30;98.20;;;;;;4378590;32;20457;-82
2021/11/14 13:51:17;;;;;;;;;;;11.30;98.20;;;;;;4392392;32;20351;-83
2021/11/14 13:53:44;;;;;;;;;;;11.20;98.10;;;;;;4378516;32;20536;-83
2021/11/14 13:56:15;;;;;;;;;;;11.30;98.10;;;;;;4379126;32;20075;-83
2021/11/14 13:58:45;;;;;;;;;;;11.30;98.10;;;;;;4391392;32;20022;-82
2021/11/14 14:01:15;;;;;;;;;;;11.30;98.50;;;;;;4378573;32;20069;-85
2021/11/14 14:03:45;;;;;;;;;;;11.30;98.10;;;;;;4364470;32;44008;-85
2021/11/14 14:06:12;;;;;;;;;;;11.30;98.10;;;;;;4391461;32;24742;-85
2021/11/14 14:08:40;;;;;;;;;;;11.30;98.10;;;;;;4376794;32;42826;-85
2021/11/14 14:11:11;;;;;;;;;;;11.30;98.00;;;;;;4390257;32;37241;-85
2021/11/14 14:13:49;;;;;;;;;;;11.30;98.00;;;;;;4391498;32;20012;-85
2021/11/14 14:16:16;;;;;;;;;;;11.30;98.00;;;;;;4377780;32;29813;-83
2021/11/14 14:18:44;;;;;;;;;;;11.30;98.00;;;;;;4377546;32;32629;-84
2021/11/14 14:21:11;;;;;;;;;;;11.30;98.00;;;;;;4390627;32;26402;-85
2021/11/14 14:23:38;;;;;;;;;;;11.30;97.90;;;;;;4376589;32;38178;-85
2021/11/14 14:26:16;;;;;;;;;;;11.30;97.90;;;;;;4390630;32;37808;-84